Portland, Maine
Current Conditions -  °F | °C
As of 10:51 AM on Monday 22 Dec 2014 (Local Time) from KPWM Reporting Station
Broken Clouds Broken Clouds  
Wind Chill: 31°   Ceiling: 5000
Heat Index: 36°   Visibility: 10mi
Dew Point: 28°   Wind: 6mph
Humidity: 73%   Direction: 30°NNE
Pressure: 30.42"   Gusts: NA
Location:  43.66°N, 70.26°W
Report Text: KPWM 221551Z 03005KT 10SM FEW020 BKN050 02/M02 A3042 RMK AO2 SLP302 T00221022
Loading
Personal Weather Stations






























Interactive Weather Map New forecast layout! Learn more

10-Day Weather Forecast

Advertisements
Track Severe Weather on mobile